Time;durP1;ratioP1;P1;durP2;ratioP2;P2;SDS_P1;SDS_P2;PMS_P1;PMS_P2;Temp;Humidity;BMP_temperature;BMP_pressure;BME280_temperature;BME280_humidity;BME280_pressure;Samples;Min_cycle;Max_cycle;Signal;HPM_P1;HPM_P2
2022/05/07 00:03:47;;;;;;;1.17;0.50;;;17.80;99.90;;;;;;20796992;28;20233;-69
2022/05/07 00:13:49;;;;;;;1.23;0.50;;;;;;;;;;20784877;22;20233;-67
2022/05/07 00:23:51;;;;;;;0.70;0.50;;;;;;;;;;20609909;28;20246;-66
2022/05/07 00:33:52;;;;;;;1.20;0.60;;;;;;;;;;20647897;28;20286;-67
2022/05/07 00:43:56;;;;;;;1.30;0.73;;;;;;;;;;20631409;28;20203;-66
2022/05/07 00:53:58;;;;;;;0.90;0.67;;;;;;;;;;20630414;28;20213;-66
2022/05/07 01:04:01;;;;;;;1.80;0.80;;;;;;;;;;20629239;28;20205;-66
2022/05/07 01:14:07;;;;;;;1.03;0.63;;;;;;;;;;20629411;28;20278;-67
2022/05/07 01:24:11;;;;;;;4.17;0.90;;;;;;;;;;20613194;28;20259;-67
2022/05/07 01:34:14;;;;;;;0.87;0.60;;;;;;;;;;20628052;28;20641;-67
2022/05/07 01:44:22;;;;;;;1.10;0.53;;;;;;;;;;20642889;28;20586;-67
2022/05/07 01:54:26;;;;;;;1.00;0.70;;;;;;;;;;20641759;28;20664;-66
2022/05/07 02:04:28;;;;;;;0.40;0.40;;;;;;;;;;20625946;28;20218;-67
2022/05/07 02:14:32;;;;;;;1.40;0.80;;;;;;;;;;20614069;28;20286;-67
2022/05/07 02:24:34;;;;;;;2.23;0.70;;;;;;;;;;20641856;28;20772;-66
2022/05/07 02:34:39;;;;;;;3.63;0.80;;;;;;;;;;20641491;28;20207;-66
2022/05/07 02:44:49;;;;;;;2.23;0.90;;;;;;;;;;20641176;28;20228;-66
2022/05/07 02:54:53;;;;;;;1.53;0.80;;;;;;;;;;20639622;28;20224;-66
2022/05/07 03:04:55;;;;;;;1.70;0.87;;;;;;;;;;20638641;28;20250;-66
2022/05/07 03:14:59;;;;;;;1.60;0.90;;;15.60;99.90;;;;;;20653927;28;20223;-67
2022/05/07 03:25:01;;;;;;;1.57;1.07;;;;;;;;;;20637023;28;20228;-66
2022/05/07 03:35:05;;;;;;;1.63;0.93;;;;;;;;;;20636976;28;20216;-66
2022/05/07 03:45:08;;;;;;;1.80;1.10;;;;;;;;;;20619329;28;20605;-66
2022/05/07 03:55:13;;;;;;;1.50;0.90;;;;;;;;;;20636157;28;20208;-66
2022/05/07 04:05:16;;;;;;;4.53;1.07;;;;;;;;;;20615841;28;20242;-66
2022/05/07 04:15:19;;;;;;;2.67;1.40;;;;;;;;;;20632509;28;20212;-66
2022/05/07 04:25:22;;;;;;;2.53;1.43;;;;;;;;;;20617015;28;20219;-67
2022/05/07 04:35:24;;;;;;;2.13;1.33;;;;;;;;;;20630924;28;20250;-66
2022/05/07 04:45:28;;;;;;;5.80;1.63;;;;;;;;;;20679827;28;20277;-67
2022/05/07 04:55:43;;;;;;;2.20;1.30;;;;;;;;;;20698518;28;20206;-66
2022/05/07 05:05:45;;;;;;;3.07;1.30;;;;;;;;;;20710133;28;20223;-66
2022/05/07 05:16:02;;;;;;;1.40;1.00;;;;;;;;;;20697035;28;20227;-66
2022/05/07 05:26:18;;;;;;;1.90;0.90;;;;;;;;;;20684077;28;20228;-66
2022/05/07 05:36:27;;;;;;;1.57;1.00;;;;;;;;;;20628466;28;20270;-67
2022/05/07 05:46:28;;;;;;;1.40;0.83;;;;;;;;;;20606102;28;20248;-66
2022/05/07 05:56:31;;;;;;;1.30;0.87;;;;;;;;;;20607273;28;20294;-66
2022/05/07 06:06:35;;;;;;;5.60;1.33;;;;;;;;;;20623551;28;20223;-66
2022/05/07 06:16:37;;;;;;;2.13;1.30;;;;;;;;;;20641324;28;20582;-66
2022/05/07 06:37:05;;;;;;;3.50;1.17;;;;;;;;;;20657847;23;20293;-82
2022/05/07 06:47:10;;;;;;;2.67;1.20;;;;;;;;;;20629648;28;20627;-82
2022/05/07 06:57:13;;;;;;;1.77;1.23;;;;;;;;;;20642296;28;20224;-82
2022/05/07 07:07:15;;;;;;;1.83;1.40;;;;;;;;;;20670656;28;20240;-83
2022/05/07 07:17:17;;;;;;;3.93;1.30;;;17.80;99.90;;;;;;20640675;28;20274;-83
2022/05/07 07:27:24;;;;;;;3.27;1.40;;;;;;;;;;20641847;28;20224;-84
2022/05/07 07:37:27;;;;;;;1.70;1.00;;;;;;;;;;20636770;28;20236;-83
2022/05/07 07:57:54;;;;;;;1.80;1.37;;;19.40;99.90;;;;;;20654107;28;20208;-84
2022/05/07 08:18:29;;;;;;;1.77;1.30;;;;;;;;;;20652251;28;20204;-86
2022/05/07 08:40:53;;;;;;;1.87;1.10;;;;;;;;;;20560907;23;20229;-65
2022/05/07 08:50:56;;;;;;;1.93;1.00;;;20.50;99.90;;;;;;20564675;28;20227;-65
2022/05/07 09:01:00;;;;;;;3.70;1.37;;;;;;;;;;20549793;28;20276;-66
2022/05/07 09:11:01;;;;;;;5.00;2.80;;;;;;;;;;20551607;28;20215;-66
2022/05/07 09:21:17;;;;;;;1.87;1.00;;;;;;;;;;20584075;28;20278;-66
2022/05/07 09:31:41;;;;;;;1.63;1.03;;;;;;;;;;20554255;28;20722;-66
2022/05/07 09:41:53;;;;;;;1.50;0.90;;;;;;;;;;20612116;28;20690;-66
2022/05/07 09:51:55;;;;;;;1.80;1.20;;;;;;;;;;20615434;28;20249;-65
2022/05/07 10:02:17;;;;;;;1.80;0.77;;;;;;;;;;20610690;28;20281;-66
2022/05/07 10:12:22;;;;;;;3.03;0.70;;;22.60;99.90;;;;;;20586261;28;20212;-66
2022/05/07 10:22:25;;;;;;;1.57;0.60;;;22.80;99.90;;;;;;20583553;28;20330;-66
2022/05/07 10:32:28;;;;;;;1.00;0.60;;;;;;;;;;20581349;28;20223;-67
2022/05/07 10:42:39;;;;;;;3.83;0.70;;;23.10;99.90;;;;;;20639092;28;20766;-67
2022/05/07 10:52:41;;;;;;;4.03;0.93;;;23.30;99.90;;;;;;20598142;28;20222;-67
2022/05/07 11:02:45;;;;;;;2.43;1.07;;;23.30;94.90;;;;;;20639858;28;20643;-67
2022/05/07 11:12:47;;;;;;;1.17;0.90;;;;;;;;;;20623211;28;20256;-68
2022/05/07 11:22:57;;;;;;;2.28;1.10;;;;;;;;;;20631679;28;20359;-67
2022/05/07 11:33:05;;;;;;;1.42;0.90;;;27.70;99.90;;;;;;20614085;28;20288;-68
2022/05/07 11:53:37;;;;;;;1.85;0.95;;;;;;;;;;20660745;28;20281;-68
2022/05/07 12:03:38;;;;;;;2.30;1.10;;;;;;;;;;20648270;28;20694;-68
2022/05/07 12:13:40;;;;;;;1.65;0.70;;;;;;;;;;20618754;28;20213;-67
2022/05/07 12:34:04;;;;;;;0.93;0.65;;;;;;;;;;20658495;23;20728;-68
2022/05/07 12:44:06;;;;;;;0.70;0.45;;;;;;;;;;20571132;28;20272;-68
2022/05/07 12:54:08;;;;;;;1.75;0.60;;;;;;;;;;20531393;28;20285;-67
2022/05/07 13:04:11;;;;;;;1.05;0.60;;;;;;;;;;20546348;28;20311;-67
2022/05/07 13:14:13;;;;;;;1.00;0.40;;;;;;;;;;20544455;28;20226;-68
2022/05/07 13:24:16;;;;;;;1.42;0.50;;;;;;;;;;20572395;28;20246;-68
2022/05/07 13:34:17;;;;;;;0.75;0.55;;;;;;;;;;20524811;28;20234;-68
2022/05/07 13:44:20;;;;;;;0.90;0.50;;;;;;;;;;20524029;28;20217;-67
2022/05/07 13:54:23;;;;;;;0.63;0.50;;;;;;;;;;20523313;28;20208;-67
2022/05/07 14:04:34;;;;;;;0.63;0.45;;;;;;;;;;20530273;28;20819;-67
2022/05/07 14:14:36;;;;;;;1.98;0.47;;;;;;;;;;20526280;28;20285;-68
2022/05/07 14:24:39;;;;;;;0.60;0.40;;;;;;;;;;20530921;28;20285;-67
2022/05/07 14:34:41;;;;;;;1.02;0.60;;;;;;;;;;20552631;28;20234;-67
2022/05/07 14:44:43;;;;;;;0.82;0.45;;;;;;;;;;20562977;28;20702;-68
2022/05/07 14:54:45;;;;;;;1.67;0.57;;;;;;;;;;20536649;28;20220;-68
2022/05/07 15:04:47;;;;;;;0.30;0.30;;;;;;;;;;20527485;28;20257;-67
2022/05/07 15:14:49;;;;;;;0.93;0.50;;;;;;;;;;20542970;28;20233;-68
2022/05/07 15:24:51;;;;;;;0.85;0.40;;;;;;;;;;20543121;28;20280;-67
2022/05/07 15:45:16;;;;;;;0.38;0.30;;;;;;;;;;20559016;28;20230;-68
2022/05/07 15:55:24;;;;;;;5.93;1.17;;;;;;;;;;20559280;28;20225;-67
2022/05/07 16:05:26;;;;;;;0.85;0.47;;;;;;;;;;20554220;28;20224;-67
2022/05/07 16:15:31;;;;;;;1.45;0.85;;;24.70;85.60;;;;;;20553833;28;20199;-67
2022/05/07 16:25:34;;;;;;;0.45;0.40;;;;;;;;;;20530260;28;20270;-67
2022/05/07 16:35:37;;;;;;;0.30;0.30;;;;;;;;;;20532585;28;20285;-67
2022/05/07 16:45:39;;;;;;;0.60;0.50;;;;;;;;;;20536112;28;20283;-68
2022/05/07 16:55:41;;;;;;;2.50;0.45;;;;;;;;;;20567297;28;20268;-68
2022/05/07 17:05:43;;;;;;;0.70;0.50;;;;;;;;;;20550804;28;20227;-68
2022/05/07 17:15:45;;;;;;;0.88;0.38;;;;;;;;;;20546083;28;20622;-67
2022/05/07 17:25:49;;;;;;;0.60;0.40;;;;;;;;;;20542144;28;20223;-70
2022/05/07 17:35:51;;;;;;;0.82;0.40;;;23.80;92.20;;;;;;20549422;28;20221;-70
2022/05/07 17:45:53;;;;;;;1.27;0.57;;;;;;;;;;20531822;28;20708;-69
2022/05/07 17:55:56;;;;;;;0.88;0.55;;;23.60;86.40;;;;;;20547887;28;20271;-70
2022/05/07 18:06:03;;;;;;;2.80;0.93;;;;;;;;;;20557587;28;20233;-69
2022/05/07 18:16:05;;;;;;;3.10;0.50;;;;;;;;;;20519912;28;20216;-69
2022/05/07 18:26:07;;;;;;;2.55;0.50;;;;;;;;;;20573504;28;20221;-68
2022/05/07 18:46:31;;;;;;;0.45;0.40;;;;;;;;;;20741354;28;20238;-82
2022/05/07 19:06:54;;;;;;;1.95;0.70;;;;;;;;;;20756908;28;20841;-82
2022/05/07 19:16:56;;;;;;;1.13;0.60;;;;;;;;;;20673690;28;20296;-82
2022/05/07 19:27:01;;;;;;;1.67;0.80;;;;;;;;;;20669727;28;20280;-82
2022/05/07 19:37:03;;;;;;;1.80;1.02;;;;;;;;;;20637361;28;20207;-82
2022/05/07 19:47:05;;;;;;;4.32;1.95;;;;;;;;;;20654328;28;20701;-81
2022/05/07 19:57:07;;;;;;;3.88;1.95;;;19.90;99.90;;;;;;20652257;28;20207;-82
2022/05/07 20:07:13;;;;;;;1.42;0.90;;;;;;;;;;20666504;28;20639;-82
2022/05/07 20:17:15;;;;;;;3.05;0.70;;;;;;;;;;20647825;28;20582;-84
2022/05/07 20:27:18;;;;;;;0.90;0.60;;;;;;;;;;20612992;28;20234;-82
2022/05/07 20:37:22;;;;;;;3.33;0.63;;;;;;;;;;20627875;28;20299;-82
2022/05/07 20:47:25;;;;;;;1.10;0.60;;;;;;;;;;20609948;28;20231;-84
2022/05/07 20:57:26;;;;;;;1.20;0.60;;;;;;;;;;20656658;28;20255;-81
2022/05/07 21:07:28;;;;;;;1.33;0.68;;;;;;;;;;20640104;28;20215;-82
2022/05/07 21:17:31;;;;;;;1.25;0.60;;;;;;;;;;20635573;28;20292;-83
2022/05/07 21:27:32;;;;;;;2.10;0.85;;;;;;;;;;20639209;28;20666;-81
2022/05/07 21:37:34;;;;;;;1.67;0.93;;;;;;;;;;20623592;28;20262;-80
2022/05/07 21:47:37;;;;;;;1.50;0.83;;;;;;;;;;20622924;28;20281;-81
2022/05/07 21:57:38;;;;;;;2.80;1.17;;;;;;;;;;20639237;28;20358;-81
2022/05/07 22:07:40;;;;;;;3.17;0.87;;;;;;;;;;20641057;28;20239;-81
2022/05/07 22:17:42;;;;;;;1.20;0.87;;;;;;;;;;20638167;28;20221;-80
2022/05/07 22:27:44;;;;;;;2.03;0.87;;;;;;;;;;20653313;28;20237;-80
2022/05/07 22:37:46;;;;;;;1.80;0.80;;;;;;;;;;20667766;28;20581;-80
2022/05/07 22:47:48;;;;;;;3.00;1.10;;;;;;;;;;20666615;28;20301;-80
2022/05/07 22:57:50;;;;;;;1.27;0.80;;;;;;;;;;20668542;28;20271;-81
2022/05/07 23:07:53;;;;;;;1.60;1.10;;;;;;;;;;20636536;28;20796;-82
2022/05/07 23:17:56;;;;;;;1.40;0.90;;;;;;;;;;20674177;28;20755;-81
2022/05/07 23:27:59;;;;;;;1.80;1.00;;;;;;;;;;20675679;28;20309;-81
2022/05/07 23:38:05;;;;;;;2.13;1.20;;;;;;;;;;20657014;28;20597;-81
2022/05/07 23:48:06;;;;;;;1.37;0.80;;;20.10;99.90;;;;;;20654525;28;20230;-81
2022/05/07 23:58:09;;;;;;;2.10;1.10;;;;;;;;;;20654410;28;20226;-81
